Time;durP1;ratioP1;P1;durP2;ratioP2;P2;SDS_P1;SDS_P2;PMS_P1;PMS_P2;Temp;Humidity;BMP_temperature;BMP_pressure;BME280_temperature;BME280_humidity;BME280_pressure;Samples;Min_cycle;Max_cycle;Signal;HPM_P1;HPM_P2
2021/10/24 00:02:11;;;;;;;;;;;;;;;-144.99;100.00;52607.09;5085109;28;20074;-77
2021/10/24 00:04:37;;;;;;;;;;;;;;;-144.99;100.00;52537.78;5085153;28;19976;-78
2021/10/24 00:07:03;;;;;;;;;;;;;;;-144.99;100.00;52598.94;5083407;28;20344;-79
2021/10/24 00:09:30;;;;;;;;;;;;;;;-144.99;100.00;52586.69;5084765;28;19947;-76
2021/10/24 00:11:56;;;;;;;;;;;;;;;-144.99;100.00;52582.63;5078054;28;20036;-75
2021/10/24 00:14:23;;;;;;;;;;;;;;;-144.99;100.00;52525.56;5083064;28;20366;-78
2021/10/24 00:16:49;;;;;;;;;;;;;;;-144.99;100.00;52578.53;5084813;28;19976;-78
2021/10/24 00:19:17;;;;;;;;;;;;;;;-144.99;100.00;52570.38;5082647;28;19980;-78
2021/10/24 00:21:43;;;;;;;;;;;;;;;-144.99;100.00;52545.94;5081762;28;20000;-79
2021/10/24 00:24:09;;;;;;;;;;;;;;;-144.99;100.00;52574.47;5080747;28;20080;-77
2021/10/24 00:26:36;;;;;;;;;;;;;;;-144.99;100.00;52570.38;5080977;28;19992;-74
2021/10/24 00:29:02;;;;;;;;;;;;;;;-144.99;100.00;52545.94;5082950;28;19973;-76
2021/10/24 00:31:28;;;;;;;;;;;;;;;-144.99;100.00;52558.16;5079610;28;20024;-78
2021/10/24 00:33:55;;;;;;;;;;;;;;;-144.99;100.00;52550.00;5085663;28;20076;-76
2021/10/24 00:36:23;;;;;;;;;;;;;;;-144.99;100.00;52582.63;5085349;28;20071;-73
2021/10/24 00:38:49;;;;;;;;;;;;;;;-144.99;100.00;52554.09;5081486;28;19996;-76
2021/10/24 00:41:16;;;;;;;;;;;;;;;-144.99;100.00;52582.63;5083793;28;19958;-79
2021/10/24 00:43:42;;;;;;;;;;;;;;;-144.99;100.00;52600.97;5078186;28;20021;-76
2021/10/24 00:46:09;;;;;;;;;;;;;;;-144.99;100.00;52543.91;5085101;28;20051;-77
2021/10/24 00:48:35;;;;;;;;;;;;;;;-144.99;100.00;52566.31;5082328;28;19980;-76
2021/10/24 00:51:01;;;;;;;;;;;;;;;-144.99;100.00;52596.88;5083510;28;19988;-77
2021/10/24 00:53:29;;;;;;;;;;;;;;;-144.99;100.00;52592.81;5082972;28;20408;-76
2021/10/24 00:55:56;;;;;;;;;;;;;;;-144.99;100.00;52568.34;5083647;28;19980;-79
2021/10/24 00:58:23;;;;;;;;;;;;;;;-144.99;100.00;52570.38;5080663;28;19973;-76
2021/10/24 01:00:49;;;;;;;;;;;;;;;-144.99;100.00;52550.00;5079983;28;20016;-77
2021/10/24 01:03:16;;;;;;;;;;;;;;;-144.99;100.00;52578.53;5082674;28;19987;-75
2021/10/24 01:05:42;;;;;;;;;;;;;;;-144.99;100.00;52529.63;5083922;28;19976;-74
2021/10/24 01:08:09;;;;;;;;;;;;;;;-144.99;100.00;52554.09;5082422;28;19977;-77
2021/10/24 01:10:37;;;;;;;;;;;;;;;-144.99;100.00;52566.31;5082433;28;20038;-76
2021/10/24 01:13:04;;;;;;;;;;;;;;;-144.99;100.00;52545.94;5081579;28;19979;-77
2021/10/24 01:15:30;;;;;;;;;;;;;;;-144.99;100.00;52541.84;5080552;28;20588;-76
2021/10/24 01:17:57;;;;;;;;;;;;;;;-144.99;100.00;52578.53;5081825;28;19980;-78
2021/10/24 01:20:24;;;;;;;;;;;;;;;-144.99;100.00;52615.25;5079935;28;20000;-76
2021/10/24 01:22:52;;;;;;;;;;;;;;;-144.99;100.00;52574.47;5085638;28;19976;-74
2021/10/24 01:25:18;;;;;;;;;;;;;;;-144.99;100.00;52594.84;5079130;28;20191;-76
2021/10/24 01:27:45;;;;;;;;;;;;;;;-144.99;100.00;52578.53;5081528;28;20361;-77
2021/10/24 01:30:15;;;;;;;;;;;;;;;-144.99;100.00;52539.81;5083379;28;19977;-76
2021/10/24 01:32:41;;;;;;;;;;;;;;;-144.99;100.00;52560.19;5082384;28;19977;-76
2021/10/24 01:35:08;;;;;;;;;;;;;;;-144.99;100.00;52578.53;5087944;28;20008;-77
2021/10/24 01:37:36;;;;;;;;;;;;;;;-144.99;100.00;52566.31;5088491;28;20003;-75
2021/10/24 01:40:05;;;;;;;;;;;;;;;-144.99;100.00;52545.94;5088666;28;20028;-75
2021/10/24 01:42:32;;;;;;;;;;;;;;;-144.99;100.00;52545.94;5075521;28;20005;-75
2021/10/24 01:44:58;;;;;;;;;;;;;;;-144.99;100.00;52537.78;5082868;28;20226;-74
2021/10/24 01:47:25;;;;;;;;;;;;;;;-144.99;100.00;52547.97;5081754;28;19980;-77
2021/10/24 01:49:51;;;;;;;;;;;;;;;-144.99;100.00;52525.56;5084785;28;19976;-78
2021/10/24 01:52:17;;;;;;;;;;;;;;;-144.99;100.00;52603.00;5085375;28;20088;-76
2021/10/24 01:54:44;;;;;;;;;;;;;;;-144.99;100.00;52558.16;5082572;28;19997;-78
2021/10/24 01:57:11;;;;;;;;;;;;;;;-144.99;100.00;52554.09;5081548;28;20008;-75
2021/10/24 01:59:38;;;;;;;;;;;;;;;-144.99;100.00;52566.31;5082512;28;19992;-78
2021/10/24 02:02:04;;;;;;;;;;;;;;;-144.99;100.00;52574.47;5082176;28;19992;-76
2021/10/24 02:04:31;;;;;;;;;;;;;;;-144.99;99.83;52515.34;5084846;28;19995;-77
2021/10/24 02:06:57;;;;;;;;;;;;;;;-144.99;99.69;52543.91;5082998;28;19976;-77
2021/10/24 02:09:23;;;;;;;;;;;;;;;-144.99;99.27;52556.13;5080982;28;20000;-76
2021/10/24 02:11:50;;;;;;;;;;;;;;;-144.99;99.40;52562.25;5077219;28;19988;-75
2021/10/24 02:14:17;;;;;;;;;;;;;;;-144.99;99.04;52543.91;5082580;28;20004;-77
2021/10/24 02:16:44;;;;;;;;;;;;;;;-144.99;98.93;52562.25;5083089;28;19976;-75
2021/10/24 02:19:11;;;;;;;;;;;;;;;-144.99;98.56;52594.84;5077535;28;19977;-77
2021/10/24 02:21:37;;;;;;;;;;;;;;;-144.99;98.63;52590.78;5080354;28;20008;-77
2021/10/24 02:24:03;;;;;;;;;;;;;;;-144.99;98.38;52558.16;5078509;28;19977;-77
2021/10/24 02:26:30;;;;;;;;;;;;;;;-144.99;98.33;52541.84;5083283;28;19972;-75
2021/10/24 02:28:56;;;;;;;;;;;;;;;-144.99;98.35;52574.47;5082643;28;19976;-74
2021/10/24 02:31:24;;;;;;;;;;;;;;;-144.99;98.07;52525.56;5078674;28;20389;-75
2021/10/24 02:33:50;;;;;;;;;;;;;;;-144.99;97.63;52550.00;5078267;28;20414;-76
2021/10/24 02:36:16;;;;;;;;;;;;;;;-144.99;97.50;52519.44;5075343;28;19981;-77
2021/10/24 02:38:43;;;;;;;;;;;;;;;-144.99;97.28;52507.19;5077211;28;19984;-76
2021/10/24 02:41:09;;;;;;;;;;;;;;;-144.99;97.20;52566.31;5075229;28;19993;-75
2021/10/24 02:43:35;;;;;;;;;;;;;;;-144.99;96.84;52550.00;5079660;28;19980;-76
2021/10/24 02:46:02;;;;;;;;;;;;;;;-144.99;96.46;52566.31;5080094;28;19980;-76
2021/10/24 02:48:30;;;;;;;;;;;;;;;-144.99;96.23;52582.63;5082025;28;19988;-77
2021/10/24 02:50:58;;;;;;;;;;;;;;;-144.99;96.48;52586.69;5080676;28;20104;-75
2021/10/24 02:53:24;;;;;;;;;;;;;;;-144.99;95.94;52570.38;5079022;28;19977;-74
2021/10/24 02:55:50;;;;;;;;;;;;;;;-144.99;95.67;52566.31;5082535;28;20187;-77
2021/10/24 02:58:17;;;;;;;;;;;;;;;-144.99;95.56;52550.00;5083717;28;19980;-74
2021/10/24 03:00:43;;;;;;;;;;;;;;;-144.99;95.71;52525.56;5085642;28;19996;-73
2021/10/24 03:03:10;;;;;;;;;;;;;;;-144.99;95.79;52529.63;5083740;28;19980;-80
2021/10/24 03:05:37;;;;;;;;;;;;;;;-144.99;95.75;52556.13;5082242;28;20142;-74
2021/10/24 03:08:04;;;;;;;;;;;;;;;-144.99;95.19;52570.38;5077028;28;19980;-74
2021/10/24 03:10:30;;;;;;;;;;;;;;;-144.99;94.85;52574.47;5075306;28;20021;-79
2021/10/24 03:12:57;;;;;;;;;;;;;;;-144.99;94.88;52547.97;5081327;28;19991;-74
2021/10/24 03:15:23;;;;;;;;;;;;;;;-144.99;95.26;52574.47;5082485;28;19989;-74
2021/10/24 03:17:49;;;;;;;;;;;;;;;-144.99;94.96;52533.69;5077889;28;19981;-76
2021/10/24 03:20:16;;;;;;;;;;;;;;;-144.99;95.14;52582.63;5080054;28;20517;-78
2021/10/24 03:22:43;;;;;;;;;;;;;;;-144.99;95.30;52558.16;5078655;28;19973;-76
2021/10/24 03:25:10;;;;;;;;;;;;;;;-144.99;94.64;52545.94;5080051;28;19964;-76
2021/10/24 03:27:36;;;;;;;;;;;;;;;-144.99;94.27;52578.53;5079080;28;19980;-74
2021/10/24 03:30:02;;;;;;;;;;;;;;;-144.99;94.42;52558.16;5079521;28;19956;-79
2021/10/24 03:32:29;;;;;;;;;;;;;;;-144.99;94.40;52537.78;5081286;28;20026;-73
2021/10/24 03:34:55;;;;;;;;;;;;;;;-144.99;94.50;52566.31;5079393;28;19988;-74
2021/10/24 03:37:22;;;;;;;;;;;;;;;-144.99;94.35;52511.28;5086311;28;19983;-75
2021/10/24 03:39:50;;;;;;;;;;;;;;;-144.99;94.19;52570.38;5080128;28;19985;-75
2021/10/24 03:42:17;;;;;;;;;;;;;;;-144.99;94.06;52594.84;5084299;28;19998;-76
2021/10/24 03:44:43;;;;;;;;;;;;;;;-144.99;94.02;52594.84;5078474;28;19981;-73
2021/10/24 03:47:09;;;;;;;;;;;;;;;-144.99;94.10;52570.38;5081913;28;19983;-77
2021/10/24 03:49:36;;;;;;;;;;;;;;;-144.99;94.01;52533.69;5083940;28;20000;-77
2021/10/24 03:52:02;;;;;;;;;;;;;;;-144.99;93.80;52554.09;5081715;28;20457;-74
2021/10/24 03:54:29;;;;;;;;;;;;;;;-144.99;93.70;52537.78;5081252;28;19996;-75
2021/10/24 03:56:57;;;;;;;;;;;;;;;-144.99;93.57;52554.09;5082744;28;19973;-75
2021/10/24 03:59:23;;;;;;;;;;;;;;;-144.99;93.82;52554.09;5082218;28;20072;-76
2021/10/24 04:01:49;;;;;;;;;;;;;;;-144.99;93.83;52568.34;5079826;28;20004;-75
2021/10/24 04:04:15;;;;;;;;;;;;;;;-144.99;93.99;52550.00;5087036;28;20037;-77
2021/10/24 04:06:42;;;;;;;;;;;;;;;-144.99;94.20;52552.03;5088676;28;19977;-75
2021/10/24 04:09:08;;;;;;;;;;;;;;;-144.99;94.10;52550.00;5084617;28;19981;-75
2021/10/24 04:11:34;;;;;;;;;;;;;;;-144.99;94.19;52574.47;5087305;28;19996;-77
2021/10/24 04:14:02;;;;;;;;;;;;;;;-144.99;94.55;52558.16;5079849;28;20491;-73
2021/10/24 04:16:28;;;;;;;;;;;;;;;-144.99;94.54;52537.78;5088510;28;19984;-78
2021/10/24 04:18:55;;;;;;;;;;;;;;;-144.99;94.63;52529.63;5088108;28;19995;-74
2021/10/24 04:21:21;;;;;;;;;;;;;;;-144.99;94.69;52570.38;5088344;28;19988;-75
2021/10/24 04:23:48;;;;;;;;;;;;;;;-144.99;94.52;52523.50;5087615;28;19961;-78
2021/10/24 04:26:15;;;;;;;;;;;;;;;-144.99;94.66;52594.84;5085714;28;19980;-75
2021/10/24 04:28:41;;;;;;;;;;;;;;;-144.99;94.77;52584.66;5081879;28;20060;-73
2021/10/24 04:31:09;;;;;;;;;;;;;;;-144.99;94.63;52586.69;5078871;28;19989;-76
2021/10/24 04:33:35;;;;;;;;;;;;;;;-144.99;94.73;52566.31;5080346;28;19984;-74
2021/10/24 04:36:02;;;;;;;;;;;;;;;-144.99;95.02;52594.84;5081097;28;20540;-74
2021/10/24 04:38:31;;;;;;;;;;;;;;;-144.99;94.84;52607.09;5083484;28;19973;-74
2021/10/24 04:40:57;;;;;;;;;;;;;;;-144.99;94.64;52554.09;5080707;28;19996;-71
2021/10/24 04:43:24;;;;;;;;;;;;;;;-144.99;95.20;52566.31;5081588;28;19976;-75
2021/10/24 04:45:50;;;;;;;;;;;;;;;-144.99;95.43;52554.09;5083720;28;19980;-78
2021/10/24 04:48:18;;;;;;;;;;;;;;;-144.99;95.36;52550.00;5083189;28;19977;-75
2021/10/24 04:50:44;;;;;;;;;;;;;;;-144.99;95.35;52566.31;5083802;28;20431;-76
2021/10/24 04:53:10;;;;;;;;;;;;;;;-144.99;95.18;52568.34;5083771;28;19972;-77
2021/10/24 04:55:37;;;;;;;;;;;;;;;-144.99;95.63;52586.69;5084117;28;19992;-72
2021/10/24 04:58:03;;;;;;;;;;;;;;;-144.99;94.74;52578.53;5082905;28;19973;-73
2021/10/24 05:00:30;;;;;;;;;;;;;;;-144.99;94.62;52570.38;5087309;28;19993;-77
2021/10/24 05:02:56;;;;;;;;;;;;;;;-144.99;94.67;52562.25;5086582;28;19980;-74
2021/10/24 05:05:25;;;;;;;;;;;;;;;-144.99;94.71;52566.31;5084356;28;19973;-79
2021/10/24 05:07:52;;;;;;;;;;;;;;;-144.99;94.73;52578.53;5082767;28;19980;-79
2021/10/24 05:10:18;;;;;;;;;;;;;;;-144.99;94.88;52582.63;5083860;28;20365;-77
2021/10/24 05:12:44;;;;;;;;;;;;;;;-144.99;94.71;52590.78;5084118;28;20128;-81
2021/10/24 05:15:11;;;;;;;;;;;;;;;-144.99;95.02;52586.69;5076452;28;20265;-78
2021/10/24 05:17:37;;;;;;;;;;;;;;;-144.99;94.90;52562.25;5079474;28;20434;-78
2021/10/24 05:20:04;;;;;;;;;;;;;;;-144.99;95.00;52545.94;5085795;28;19995;-78
2021/10/24 05:22:32;;;;;;;;;;;;;;;-144.99;95.33;52590.78;5084907;28;19980;-78
2021/10/24 05:24:58;;;;;;;;;;;;;;;-144.99;95.18;52582.63;5084945;28;19997;-75
2021/10/24 05:27:25;;;;;;;;;;;;;;;-144.99;95.69;52580.59;5082462;28;19981;-75
2021/10/24 05:29:51;;;;;;;;;;;;;;;-144.99;95.49;52582.63;5083068;28;20011;-79
2021/10/24 05:32:17;;;;;;;;;;;;;;;-144.99;95.89;52570.38;5083046;28;19976;-77
2021/10/24 05:34:44;;;;;;;;;;;;;;;-144.99;95.86;52562.25;5076591;28;20134;-76
2021/10/24 05:37:10;;;;;;;;;;;;;;;-144.99;96.25;52578.53;5082557;28;19987;-73
2021/10/24 05:39:38;;;;;;;;;;;;;;;-144.99;96.40;52566.31;5082789;28;19988;-78
2021/10/24 05:42:04;;;;;;;;;;;;;;;-144.99;96.69;52582.63;5080979;28;19999;-78
2021/10/24 05:44:31;;;;;;;;;;;;;;;-144.99;96.50;52590.78;5078665;28;19972;-74
2021/10/24 05:46:57;;;;;;;;;;;;;;;-144.99;96.57;52566.31;5082248;28;19981;-77
2021/10/24 05:49:24;;;;;;;;;;;;;;;-144.99;97.17;52578.53;5082113;28;19977;-80
2021/10/24 05:51:52;;;;;;;;;;;;;;;-144.99;97.78;52598.94;5077602;28;19996;-78
2021/10/24 05:54:18;;;;;;;;;;;;;;;-144.99;97.80;52572.44;5081871;28;20052;-80
2021/10/24 05:56:45;;;;;;;;;;;;;;;-144.99;98.07;52578.53;5081589;28;21546;-76
2021/10/24 05:59:12;;;;;;;;;;;;;;;-144.99;97.91;52566.31;5081788;28;19973;-75
2021/10/24 06:01:38;;;;;;;;;;;;;;;-144.99;98.30;52570.38;5083437;28;20548;-72
2021/10/24 06:04:04;;;;;;;;;;;;;;;-144.99;98.11;52578.53;5079064;28;19977;-76
2021/10/24 06:06:31;;;;;;;;;;;;;;;-144.99;98.63;52582.63;5077860;28;20381;-75
2021/10/24 06:08:59;;;;;;;;;;;;;;;-144.99;98.64;52578.53;5079037;28;19981;-73
2021/10/24 06:11:28;;;;;;;;;;;;;;;-144.99;98.75;52607.09;5080396;28;20016;-74
2021/10/24 06:13:56;;;;;;;;;;;;;;;-144.99;98.81;52582.63;5079210;28;19973;-78
2021/10/24 06:16:22;;;;;;;;;;;;;;;-144.99;99.01;52582.63;5080959;28;20046;-80
2021/10/24 06:18:49;;;;;;;;;;;;;;;-144.99;99.06;52594.84;5083257;28;20015;-81
2021/10/24 06:21:15;;;;;;;;;;;;;;;-144.99;99.35;52558.16;5079690;28;20075;-76
2021/10/24 06:23:42;;;;;;;;;;;;;;;-144.99;99.11;52576.50;5083533;28;19999;-78
2021/10/24 06:26:08;;;;;;;;;;;;;;;-144.99;99.76;52558.16;5081856;28;19976;-77
2021/10/24 06:28:34;;;;;;;;;;;;;;;-144.99;99.73;52584.66;5084775;28;19980;-76
2021/10/24 06:31:02;;;;;;;;;;;;;;;-144.99;99.55;52574.47;5086929;28;19996;-80
2021/10/24 06:33:29;;;;;;;;;;;;;;;-144.99;99.60;52586.69;5080681;28;20055;-76
2021/10/24 06:35:55;;;;;;;;;;;;;;;-144.99;99.20;52578.53;5082436;28;20068;-77
2021/10/24 06:38:21;;;;;;;;;;;;;;;-144.99;99.58;52611.16;5086602;28;20480;-74
2021/10/24 06:40:48;;;;;;;;;;;;;;;-144.99;99.75;52594.84;5086203;28;20015;-77
2021/10/24 06:43:14;;;;;;;;;;;;;;;-144.99;98.89;52558.16;5083723;28;20357;-72
2021/10/24 06:45:40;;;;;;;;;;;;;;;-144.99;98.60;52537.78;5080292;28;19980;-74
2021/10/24 06:48:08;;;;;;;;;;;;;;;-144.99;98.54;52570.38;5085288;28;19981;-73
2021/10/24 06:50:35;;;;;;;;;;;;;;;-144.99;98.64;52582.63;5083250;28;20087;-75
2021/10/24 06:53:01;;;;;;;;;;;;;;;-144.99;98.51;52574.47;5079837;28;19997;-73
2021/10/24 06:55:28;;;;;;;;;;;;;;;-144.99;98.33;52590.78;5077900;28;20155;-73
2021/10/24 06:57:56;;;;;;;;;;;;;;;-144.99;98.32;52594.84;5078537;28;19983;-74
2021/10/24 07:00:23;;;;;;;;;;;;;;;-144.99;97.88;52533.69;5083198;28;19992;-73
2021/10/24 07:02:50;;;;;;;;;;;;;;;-144.99;97.25;52552.03;5081378;28;19976;-77
2021/10/24 07:05:18;;;;;;;;;;;;;;;-144.99;96.81;52554.09;5078942;28;20072;-75
2021/10/24 07:07:45;;;;;;;;;;;;;;;-144.99;95.95;52562.25;5079774;28;19976;-74
2021/10/24 07:10:11;;;;;;;;;;;;;;;-144.99;94.90;52558.16;5081698;28;19983;-72
2021/10/24 07:12:38;;;;;;;;;;;;;;;-144.99;94.04;52550.00;5078148;28;19980;-75
2021/10/24 07:15:05;;;;;;;;;;;;;;;-144.99;92.23;52531.66;5084451;28;19977;-76
2021/10/24 07:17:32;;;;;;;;;;;;;;;-144.99;91.00;52513.31;5085830;28;19983;-76
2021/10/24 07:19:58;;;;;;;;;;;;;;;-144.99;91.04;52529.63;5084639;28;19972;-74
2021/10/24 07:22:26;;;;;;;;;;;;;;;-144.99;89.44;52550.00;5084639;28;19972;-76
2021/10/24 07:24:52;;;;;;;;;;;;;;;-144.99;88.88;52574.47;5083399;28;19972;-79
2021/10/24 07:27:21;;;;;;;;;;;;;;;-144.99;86.98;52523.50;5083322;28;19972;-76
2021/10/24 07:29:48;;;;;;;;;;;;;;;-144.99;87.56;52537.78;5078186;28;20056;-73
2021/10/24 07:32:15;;;;;;;;;;;;;;;-144.99;86.97;52509.25;5084113;28;19995;-71
2021/10/24 07:34:41;;;;;;;;;;;;;;;-144.99;86.93;52545.94;5083836;28;19973;-73
2021/10/24 07:37:08;;;;;;;;;;;;;;;-144.99;85.81;52509.25;5085986;28;19988;-73
2021/10/24 07:39:36;;;;;;;;;;;;;;;-144.99;86.50;52521.47;5089589;28;19981;-71
2021/10/24 07:42:02;;;;;;;;;;;;;;;-144.99;85.22;52525.56;5086943;28;19989;-74
2021/10/24 07:44:28;;;;;;;;;;;;;;;-144.99;85.43;52488.84;5086904;28;19991;-74
2021/10/24 07:46:56;;;;;;;;;;;;;;;-144.99;84.08;52511.28;5086205;28;20016;-75
2021/10/24 07:49:23;;;;;;;;;;;;;;;-144.99;83.18;52492.94;5081320;28;19983;-74
2021/10/24 07:51:49;;;;;;;;;;;;;;;-144.99;80.58;52521.47;5086896;28;19994;-75
2021/10/24 07:54:16;;;;;;;;;;;;;;;-144.99;80.96;52501.09;5083082;28;20019;-72
2021/10/24 07:56:43;;;;;;;;;;;;;;;-144.99;79.29;52505.16;5082940;28;19966;-74
2021/10/24 07:59:10;;;;;;;;;;;;;;;-144.99;78.81;52515.34;5080807;28;19973;-72
2021/10/24 08:01:36;;;;;;;;;;;;;;;-144.99;79.19;52503.13;5085388;28;19996;-74
2021/10/24 08:04:03;;;;;;;;;;;;;;;-144.99;77.81;52519.44;5083994;28;19973;-73
2021/10/24 08:06:29;;;;;;;;;;;;;;;-144.99;75.98;52515.34;5084946;28;19999;-73
2021/10/24 08:08:57;;;;;;;;;;;;;;;-144.99;75.17;52525.56;5085630;28;19999;-73
2021/10/24 08:11:24;;;;;;;;;;;;;;;-144.99;75.21;52525.56;5081693;28;19995;-75
2021/10/24 08:13:52;;;;;;;;;;;;;;;-144.99;74.94;52513.31;5085277;28;20394;-74
2021/10/24 08:16:18;;;;;;;;;;;;;;;-144.99;75.04;52480.72;5083760;28;20433;-81
2021/10/24 08:18:45;;;;;;;;;;;;;;;-144.99;73.65;52476.63;5080317;28;20033;-76
2021/10/24 08:21:11;;;;;;;;;;;;;;;-144.99;72.38;52505.16;5083634;28;19996;-79
2021/10/24 08:23:37;;;;;;;;;;;;;;;-144.99;71.44;52480.72;5080229;28;20512;-75
2021/10/24 08:26:04;;;;;;;;;;;;;;;-144.99;71.69;52501.09;5079000;28;19984;-76
2021/10/24 08:28:30;;;;;;;;;;;;;;;-144.99;71.04;52441.97;5080044;28;19976;-75
2021/10/24 08:30:58;;;;;;;;;;;;;;;-144.99;70.07;52460.31;5079660;28;19983;-76
2021/10/24 08:33:24;;;;;;;;;;;;;;;-144.99;69.05;52462.34;5081935;28;20203;-79
2021/10/24 08:35:50;;;;;;;;;;;;;;;-144.99;67.50;52505.16;5078332;28;20422;-73
2021/10/24 08:38:17;;;;;;;;;;;;;;;-144.99;66.60;52433.81;5082376;28;19973;-75
2021/10/24 08:40:45;;;;;;;;;;;;;;;-144.99;65.25;52480.72;5074928;28;20004;-76
2021/10/24 08:43:17;;;;;;;;;;;;;;;-144.99;64.35;52452.16;5078669;28;19984;-75
2021/10/24 08:45:44;;;;;;;;;;;;;;;-144.99;63.17;52482.75;5082330;28;19977;-77
2021/10/24 08:48:12;;;;;;;;;;;;;;;-144.99;66.09;52476.63;5086843;28;20016;-78
2021/10/24 08:50:38;;;;;;;;;;;;;;;-144.99;65.25;52452.16;5080928;28;20001;-76
2021/10/24 08:53:06;;;;;;;;;;;;;;;-144.99;62.54;52472.56;5080490;28;20460;-78
2021/10/24 08:55:33;;;;;;;;;;;;;;;-144.99;61.86;52423.63;5081624;28;20069;-79
2021/10/24 08:57:59;;;;;;;;;;;;;;;-144.99;60.48;52456.25;5078010;28;19984;-74
2021/10/24 09:00:25;;;;;;;;;;;;;;;-144.99;59.56;52427.72;5081059;28;20072;-75
2021/10/24 09:02:59;;;;;;;;;;;;;;;-144.99;59.11;52466.44;5081811;28;19987;-77
2021/10/24 09:05:31;;;;;;;;;;;;;;;-144.99;57.56;52425.66;5103705;22;20000;-77
2021/10/24 09:07:58;;;;;;;;;;;;;;;-144.99;57.69;52456.25;5080493;28;19991;-76
2021/10/24 09:10:34;;;;;;;;;;;;;;;-144.99;58.19;52423.63;5083312;28;20021;-76
2021/10/24 09:13:01;;;;;;;;;;;;;;;-144.99;56.74;52415.47;5077902;28;19977;-77
2021/10/24 09:15:28;;;;;;;;;;;;;;;-144.99;56.97;52439.94;5081346;28;19996;-75
2021/10/24 09:18:06;;;;;;;;;;;;;;;-144.99;56.47;52419.56;5081768;28;19992;-79
2021/10/24 09:20:34;;;;;;;;;;;;;;;-144.99;55.04;52378.78;5081628;28;20063;-79
2021/10/24 09:23:05;;;;;;;;;;;;;;;-144.99;53.96;52444.03;5081194;28;20457;-79
2021/10/24 09:25:32;;;;;;;;;;;;;;;-144.99;52.25;52395.09;5083781;28;19993;-79
2021/10/24 09:28:00;;;;;;;;;;;;;;;-144.99;51.21;52411.41;5084246;28;19983;-79
2021/10/24 09:30:30;;;;;;;;;;;;;;;-144.99;50.25;52386.94;5085841;28;19973;-80
2021/10/24 09:33:00;;;;;;;;;;;;;;;-144.99;48.72;52372.69;5083341;28;21407;-79
2021/10/24 09:35:28;;;;;;;;;;;;;;;-144.99;48.60;52384.91;5081131;28;19983;-78
2021/10/24 09:37:56;;;;;;;;;;;;;;;-144.99;49.40;52362.50;5085541;28;19999;-78
2021/10/24 09:40:25;;;;;;;;;;;;;;;-144.99;49.23;52391.03;5087347;28;20062;-79
2021/10/24 09:43:05;;;;;;;;;;;;;;;-144.99;49.09;52374.72;5086185;28;19992;-79
2021/10/24 09:45:32;;;;;;;;;;;;;;;-144.99;48.33;52356.38;5091421;28;19992;-79
2021/10/24 09:48:05;;;;;;;;;;;;;;;-144.99;47.61;52366.56;5097161;28;20097;-78
2021/10/24 09:50:33;;;;;;;;;;;;;;;-144.99;46.19;52380.84;5101138;28;19982;-79
2021/10/24 09:53:11;;;;;;;;;;;;;;;-144.99;45.73;52370.63;5082262;28;20025;-79
2021/10/24 09:55:37;;;;;;;;;;;;;;;-144.99;46.03;52368.59;5084012;28;20044;-80
2021/10/24 09:58:04;;;;;;;;;;;;;;;-144.99;45.03;52366.56;5087012;28;20000;-78
2021/10/24 10:00:31;;;;;;;;;;;;;;;-144.99;44.71;52366.56;5085683;28;19976;-79
2021/10/24 10:02:58;;;;;;;;;;;;;;;-144.99;45.64;52374.72;5088580;28;20693;-79
2021/10/24 10:05:25;;;;;;;;;;;;;;;-144.99;44.63;52317.66;5087609;28;20000;-79
2021/10/24 10:07:52;;;;;;;;;;;;;;;-144.99;44.97;52285.03;5088329;28;20048;-79
2021/10/24 10:10:20;;;;;;;;;;;;;;;-144.99;43.84;52293.19;5079905;28;20357;-79
2021/10/24 10:12:47;;;;;;;;;;;;;;;-144.99;42.70;52234.09;5078279;28;20060;-78
2021/10/24 10:15:14;;;;;;;;;;;;;;;-144.99;41.69;52219.81;5081086;28;19996;-79
2021/10/24 10:17:41;;;;;;;;;;;;;;;-144.99;41.76;52232.03;5080536;28;19988;-79
2021/10/24 10:20:21;;;;;;;;;;;;;;;-144.99;41.51;52201.47;5083651;28;19982;-78
2021/10/24 10:22:59;;;;;;;;;;;;;;;-144.99;41.18;52154.59;5082821;28;19976;-79
2021/10/24 10:25:29;;;;;;;;;;;;;;;-144.99;40.87;52223.88;5081932;28;19992;-79
2021/10/24 10:27:56;;;;;;;;;;;;;;;-144.99;40.96;52199.44;5081504;28;20473;-81
2021/10/24 10:30:36;;;;;;;;;;;;;;;-144.99;41.24;52199.44;5085397;28;20041;-79
2021/10/24 10:33:04;;;;;;;;;;;;;;;-144.99;40.47;52199.44;5080985;28;19988;-79
2021/10/24 10:35:31;;;;;;;;;;;;;;;-144.99;40.32;52193.31;5084342;28;20139;-78
2021/10/24 10:37:59;;;;;;;;;;;;;;;-144.99;39.67;52160.72;5078899;28;19999;-79
2021/10/24 10:40:26;;;;;;;;;;;;;;;-144.99;39.19;52179.06;5083792;28;19999;-79
2021/10/24 10:42:55;;;;;;;;;;;;;;;-144.99;39.10;52174.97;5082845;28;20319;-78
2021/10/24 10:45:48;;;;;;;;;;;;;;;-144.99;40.41;52203.50;5087904;28;20362;-77
2021/10/24 10:48:28;;;;;;;;;;;;;;;-144.99;39.88;52187.19;5098429;28;19987;-79
2021/10/24 10:50:55;;;;;;;;;;;;;;;-144.99;40.19;52256.50;5100633;28;19980;-78
2021/10/24 10:53:41;;;;;;;;;;;;;;;-144.99;39.80;52195.34;5099289;28;19988;-78
2021/10/24 10:56:19;;;;;;;;;;;;;;;-144.99;40.36;52203.50;5087390;28;20596;-80
2021/10/24 10:58:48;;;;;;;;;;;;;;;-144.99;40.53;52195.34;5094554;28;20027;-78
2021/10/24 11:01:18;;;;;;;;;;;;;;;-144.99;39.48;52164.78;5095654;28;19993;-78
2021/10/24 11:03:46;;;;;;;;;;;;;;;-144.99;38.17;52162.75;5088768;28;20048;-78
2021/10/24 11:06:32;;;;;;;;;;;;;;;-144.99;37.58;52158.66;5082849;28;20183;-78
2021/10/24 11:09:00;;;;;;;;;;;;;;;-144.99;37.64;52113.84;4382548;28;10000342;-77
2021/10/24 11:11:50;;;;;;;;;;;;;;;-144.99;38.21;52174.97;5083719;28;19983;-80
2021/10/24 11:14:31;;;;;;;;;;;;;;;-144.99;38.21;52142.38;5084757;28;19977;-78
2021/10/24 11:17:01;;;;;;;;;;;;;;;-144.99;38.24;52158.66;5079290;28;20003;-78
2021/10/24 11:19:45;;;;;;;;;;;;;;;-144.99;38.57;52174.97;5084427;28;20069;-79
2021/10/24 11:22:16;;;;;;;;;;;;;;;-144.99;37.60;52179.06;5085121;28;19928;-78
2021/10/24 11:24:44;;;;;;;;;;;;;;;-144.99;38.33;52166.81;5086949;28;19998;-77
2021/10/24 11:27:11;;;;;;;;;;;;;;;-144.99;37.25;52142.38;5086816;28;20462;-78
2021/10/24 11:29:48;;;;;;;;;;;;;;;-144.99;37.50;52201.47;5083728;28;19987;-79
2021/10/24 11:32:18;;;;;;;;;;;;;;;-144.99;36.79;52126.06;5083145;28;19991;-77
2021/10/24 11:34:44;;;;;;;;;;;;;;;-144.99;36.42;52166.81;5085097;28;20027;-79
2021/10/24 11:37:11;;;;;;;;;;;;;;;-144.99;36.91;52146.44;5083853;28;20511;-80
2021/10/24 11:39:37;;;;;;;;;;;;;;;-144.99;36.97;52150.53;5085393;28;19991;-79
2021/10/24 11:42:10;;;;;;;;;;;;;;;-144.99;36.60;52174.97;5081290;28;19981;-78
2021/10/24 11:44:36;;;;;;;;;;;;;;;-144.99;35.99;52181.09;5083787;28;20310;-79
2021/10/24 11:47:07;;;;;;;;;;;;;;;-144.99;36.30;52160.72;5087100;28;19983;-80
2021/10/24 11:49:43;;;;;;;;;;;;;;;-144.99;35.99;52130.13;5085234;28;19977;-79
2021/10/24 11:52:10;;;;;;;;;;;;;;;-144.99;36.14;52170.91;5084319;28;20031;-79
2021/10/24 11:54:36;;;;;;;;;;;;;;;-144.99;36.52;52191.28;5083408;28;19992;-79
2021/10/24 11:57:29;;;;;;;;;;;;;;;-144.99;36.85;52203.50;5090873;28;19993;-80
2021/10/24 12:00:06;;;;;;;;;;;;;;;-144.99;37.25;52187.19;5094948;27;19961;-78
2021/10/24 12:02:32;;;;;;;;;;;;;;;-144.99;37.77;52217.78;5100776;28;20007;-78
2021/10/24 12:05:10;;;;;;;;;;;;;;;-144.99;37.85;52207.59;5095302;28;20008;-78
2021/10/24 12:07:37;;;;;;;;;;;;;;;-144.99;37.33;52211.66;5093956;28;20416;-78
2021/10/24 12:10:03;;;;;;;;;;;;;;;-144.99;36.87;52158.66;5092438;28;20461;-77
2021/10/24 12:12:36;;;;;;;;;;;;;;;-144.99;35.76;52187.19;5096623;28;20132;-79
2021/10/24 12:15:04;;;;;;;;;;;;;;;-144.99;35.13;52146.44;5086391;28;20000;-78
2021/10/24 12:17:31;;;;;;;;;;;;;;;-144.99;35.71;52146.44;5085817;28;19988;-79
2021/10/24 12:20:09;;;;;;;;;;;;;;;-144.99;35.11;52109.75;5090031;28;19981;-81
2021/10/24 12:22:38;;;;;;;;;;;;;;;-144.99;34.22;52103.66;5084428;28;19980;-78
2021/10/24 12:25:05;;;;;;;;;;;;;;;-144.99;35.16;52146.44;5081773;28;20043;-79
2021/10/24 12:27:33;;;;;;;;;;;;;;;-144.99;36.74;52170.91;5082260;28;19977;-79
2021/10/24 12:30:02;;;;;;;;;;;;;;;-144.99;35.89;52177.00;5087046;28;20036;-78